Palms, Michigan
Current Conditions -  °F | °C
As of 9:34 AM on Tuesday 27 Jan 2015 (Local Time) from KBAX Reporting Station
Light Snow Light Snow  
Wind Chill:   Ceiling: 2300
Heat Index: 19°   Visibility: 7mi
Dew Point: 15°   Wind: 10mph
Humidity: 82%   Direction: 30°NNE
Pressure: 30.12"   Gusts: 16mph
Location:  43.62°N, 82.69°W
Report Text: KBAX 271434Z AUTO 03009G14KT 7SM -SN SCT016 BKN023 M07/M10 A3012 RMK AO2 T10711097
Loading
Personal Weather Stations






























Interactive Weather Map New forecast layout! Learn more

10-Day Weather Forecast

Advertisements
Track Severe Weather on mobile